sensor_id;sensor_type;location;lat;lon;timestamp;pressure;altitude;pressure_sealevel;temperature;humidity
50859;BME280;36826;47.514;19.056;2022-12-18T00:01:16;101534.78;;;-3.04;100.00
50859;BME280;36826;47.514;19.056;2022-12-18T00:03:42;101541.78;;;-3.03;100.00
50859;BME280;36826;47.514;19.056;2022-12-18T00:06:08;101546.19;;;-3.10;100.00
50859;BME280;36826;47.514;19.056;2022-12-18T00:08:34;101550.56;;;-3.11;100.00
50859;BME280;36826;47.514;19.056;2022-12-18T00:11:07;101564.34;;;-2.91;100.00
50859;BME280;36826;47.514;19.056;2022-12-18T00:13:33;101561.72;;;-2.91;100.00
50859;BME280;36826;47.514;19.056;2022-12-18T00:16:09;101566.94;;;-2.88;100.00
50859;BME280;36826;47.514;19.056;2022-12-18T00:18:35;101577.41;;;-2.85;100.00
50859;BME280;36826;47.514;19.056;2022-12-18T00:21:02;101579.22;;;-2.90;100.00
50859;BME280;36826;47.514;19.056;2022-12-18T00:23:29;101588.84;;;-2.94;100.00
50859;BME280;36826;47.514;19.056;2022-12-18T00:25:55;101588.88;;;-2.97;100.00
50859;BME280;36826;47.514;19.056;2022-12-18T00:28:23;101591.47;;;-2.96;100.00
50859;BME280;36826;47.514;19.056;2022-12-18T00:30:48;101597.66;;;-3.00;100.00
50859;BME280;36826;47.514;19.056;2022-12-18T00:33:17;101599.38;;;-2.97;100.00
50859;BME280;36826;47.514;19.056;2022-12-18T00:35:42;101602.91;;;-3.01;100.00
50859;BME280;36826;47.514;19.056;2022-12-18T00:38:08;101597.66;;;-3.01;100.00
50859;BME280;36826;47.514;19.056;2022-12-18T00:40:33;101600.28;;;-3.00;100.00
50859;BME280;36826;47.514;19.056;2022-12-18T00:42:59;101603.81;;;-3.04;100.00
50859;BME280;36826;47.514;19.056;2022-12-18T00:45:30;101610.88;;;-3.12;100.00
50859;BME280;36826;47.514;19.056;2022-12-18T00:47:56;101608.25;;;-3.14;100.00
50859;BME280;36826;47.514;19.056;2022-12-18T00:50:23;101612.59;;;-3.10;100.00
50859;BME280;36826;47.514;19.056;2022-12-18T00:52:48;101618.72;;;-3.14;100.00
50859;BME280;36826;47.514;19.056;2022-12-18T00:55:14;101615.31;;;-3.19;100.00
50859;BME280;36826;47.514;19.056;2022-12-18T00:57:40;101611.81;;;-3.21;100.00
50859;BME280;36826;47.514;19.056;2022-12-18T01:00:07;101621.47;;;-3.28;100.00
50859;BME280;36826;47.514;19.056;2022-12-18T01:02:33;101627.63;;;-3.30;100.00
50859;BME280;36826;47.514;19.056;2022-12-18T01:05:00;101632.88;;;-3.33;100.00
50859;BME280;36826;47.514;19.056;2022-12-18T01:07:25;101634.59;;;-3.31;100.00
50859;BME280;36826;47.514;19.056;2022-12-18T01:09:50;101638.97;;;-3.30;100.00
50859;BME280;36826;47.514;19.056;2022-12-18T01:12:16;101639.81;;;-3.26;100.00
50859;BME280;36826;47.514;19.056;2022-12-18T01:14:41;101639.81;;;-3.26;100.00
50859;BME280;36826;47.514;19.056;2022-12-18T01:17:06;101639.78;;;-3.20;100.00
50859;BME280;36826;47.514;19.056;2022-12-18T01:19:32;101643.94;;;-2.97;100.00
50859;BME280;36826;47.514;19.056;2022-12-18T01:21:58;101650.03;;;-2.92;100.00
50859;BME280;36826;47.514;19.056;2022-12-18T01:24:23;101650.88;;;-2.91;100.00
50859;BME280;36826;47.514;19.056;2022-12-18T01:26:49;101655.19;;;-2.83;100.00
50859;BME280;36826;47.514;19.056;2022-12-18T01:29:14;101648.19;;;-2.84;100.00
50859;BME280;36826;47.514;19.056;2022-12-18T01:31:40;101656.06;;;-2.84;100.00
50859;BME280;36826;47.514;19.056;2022-12-18T01:34:05;101657.81;;;-2.86;100.00
50859;BME280;36826;47.514;19.056;2022-12-18T01:36:33;101657.72;;;-2.77;100.00
50859;BME280;36826;47.514;19.056;2022-12-18T01:39:00;101656.97;;;-2.88;100.00
50859;BME280;36826;47.514;19.056;2022-12-18T01:41:28;101663.16;;;-2.97;100.00
50859;BME280;36826;47.514;19.056;2022-12-18T01:47:20;101671.97;;;-3.07;100.00
50859;BME280;36826;47.514;19.056;2022-12-18T01:49:46;101669.38;;;-3.09;100.00
50859;BME280;36826;47.514;19.056;2022-12-18T01:52:11;101673.84;;;-3.17;100.00
50859;BME280;36826;47.514;19.056;2022-12-18T01:54:36;101673.78;;;-3.11;100.00
50859;BME280;36826;47.514;19.056;2022-12-18T01:57:02;101678.13;;;-3.10;100.00
50859;BME280;36826;47.514;19.056;2022-12-18T01:59:29;101676.34;;;-3.03;100.00
50859;BME280;36826;47.514;19.056;2022-12-18T02:01:56;101677.19;;;-3.02;100.00
50859;BME280;36826;47.514;19.056;2022-12-18T02:04:24;101680.69;;;-3.02;100.00
50859;BME280;36826;47.514;19.056;2022-12-18T02:06:58;101683.28;;;-3.00;100.00
50859;BME280;36826;47.514;19.056;2022-12-18T02:09:40;101693.78;;;-3.00;100.00
50859;BME280;36826;47.514;19.056;2022-12-18T02:12:23;101691.16;;;-2.99;100.00
50859;BME280;36826;47.514;19.056;2022-12-18T02:14:58;101703.41;;;-3.01;100.00
50859;BME280;36826;47.514;19.056;2022-12-18T02:27:59;101711.41;;;-3.22;100.00
50859;BME280;36826;47.514;19.056;2022-12-18T02:30:27;101706.16;;;-3.18;100.00
50859;BME280;36826;47.514;19.056;2022-12-18T02:32:55;101713.97;;;-3.15;100.00
50859;BME280;36826;47.514;19.056;2022-12-18T02:35:25;101714.00;;;-3.16;100.00
50859;BME280;36826;47.514;19.056;2022-12-18T02:37:53;101725.34;;;-3.16;100.00
50859;BME280;36826;47.514;19.056;2022-12-18T02:40:19;101728.88;;;-3.17;100.00
50859;BME280;36826;47.514;19.056;2022-12-18T02:42:46;101727.13;;;-3.18;100.00
50859;BME280;36826;47.514;19.056;2022-12-18T02:45:11;101719.28;;;-3.18;100.00
50859;BME280;36826;47.514;19.056;2022-12-18T02:47:39;101721.00;;;-3.17;100.00
50859;BME280;36826;47.514;19.056;2022-12-18T02:53:24;101729.78;;;-3.27;100.00
50859;BME280;36826;47.514;19.056;2022-12-18T02:56:05;101736.81;;;-3.32;100.00
50859;BME280;36826;47.514;19.056;2022-12-18T03:04:16;101746.50;;;-3.44;100.00
50859;BME280;36826;47.514;19.056;2022-12-18T03:06:49;101753.50;;;-3.49;100.00
50859;BME280;36826;47.514;19.056;2022-12-18T03:09:19;101749.13;;;-3.47;100.00
50859;BME280;36826;47.514;19.056;2022-12-18T03:11:53;101748.25;;;-3.49;100.00
50859;BME280;36826;47.514;19.056;2022-12-18T03:15:01;101757.00;;;-3.47;100.00
50859;BME280;36826;47.514;19.056;2022-12-18T03:17:31;101759.59;;;-3.44;100.00
50859;BME280;36826;47.514;19.056;2022-12-18T03:20:02;101756.94;;;-3.37;100.00
50859;BME280;36826;47.514;19.056;2022-12-18T03:22:30;101767.41;;;-3.34;100.00
50859;BME280;36826;47.514;19.056;2022-12-18T03:24:59;101761.31;;;-3.38;100.00
50859;BME280;36826;47.514;19.056;2022-12-18T03:27:27;101765.66;;;-3.32;100.00
50859;BME280;36826;47.514;19.056;2022-12-18T03:30:04;101777.91;;;-3.37;100.00
50859;BME280;36826;47.514;19.056;2022-12-18T03:33:06;101779.66;;;-3.40;100.00
50859;BME280;36826;47.514;19.056;2022-12-18T03:35:40;101782.31;;;-3.46;100.00
50859;BME280;36826;47.514;19.056;2022-12-18T03:38:07;101786.69;;;-3.45;100.00
50859;BME280;36826;47.514;19.056;2022-12-18T03:40:59;101794.53;;;-3.45;100.00
50859;BME280;36826;47.514;19.056;2022-12-18T03:46:24;101808.53;;;-3.52;100.00
50859;BME280;36826;47.514;19.056;2022-12-18T03:49:25;101798.06;;;-3.50;100.00
50859;BME280;36826;47.514;19.056;2022-12-18T03:52:03;101798.97;;;-3.59;100.00
50859;BME280;36826;47.514;19.056;2022-12-18T03:54:30;101793.72;;;-3.65;100.00
50859;BME280;36826;47.514;19.056;2022-12-18T03:57:06;101797.22;;;-3.62;100.00
50859;BME280;36826;47.514;19.056;2022-12-18T03:59:34;101789.38;;;-3.62;100.00
50859;BME280;36826;47.514;19.056;2022-12-18T04:02:01;101783.28;;;-3.72;100.00
50859;BME280;36826;47.514;19.056;2022-12-18T04:04:28;101791.13;;;-3.68;100.00
50859;BME280;36826;47.514;19.056;2022-12-18T04:06:55;101797.25;;;-3.76;100.00
50859;BME280;36826;47.514;19.056;2022-12-18T04:09:22;101800.75;;;-3.77;100.00
50859;BME280;36826;47.514;19.056;2022-12-18T04:11:48;101800.75;;;-3.74;100.00
50859;BME280;36826;47.514;19.056;2022-12-18T04:14:14;101804.19;;;-3.58;100.00
50859;BME280;36826;47.514;19.056;2022-12-18T04:16:39;101804.19;;;-3.65;100.00
50859;BME280;36826;47.514;19.056;2022-12-18T04:19:05;101799.00;;;-3.68;100.00
50859;BME280;36826;47.514;19.056;2022-12-18T04:21:30;101800.72;;;-3.72;100.00
50859;BME280;36826;47.514;19.056;2022-12-18T04:23:56;101805.97;;;-3.71;100.00
50859;BME280;36826;47.514;19.056;2022-12-18T04:26:21;101801.63;;;-3.72;100.00
50859;BME280;36826;47.514;19.056;2022-12-18T04:28:47;101806.00;;;-3.75;100.00
50859;BME280;36826;47.514;19.056;2022-12-18T04:31:12;101804.28;;;-3.81;100.00
50859;BME280;36826;47.514;19.056;2022-12-18T04:33:38;101804.28;;;-3.84;100.00
50859;BME280;36826;47.514;19.056;2022-12-18T04:36:04;101810.38;;;-3.85;100.00
50859;BME280;36826;47.514;19.056;2022-12-18T04:38:29;101817.38;;;-3.93;100.00
50859;BME280;36826;47.514;19.056;2022-12-18T04:40:55;101822.59;;;-3.93;100.00
50859;BME280;36826;47.514;19.056;2022-12-18T04:43:20;101826.97;;;-3.97;100.00
50859;BME280;36826;47.514;19.056;2022-12-18T04:45:45;101828.72;;;-4.01;100.00
50859;BME280;36826;47.514;19.056;2022-12-18T04:48:11;101830.47;;;-4.03;100.00
50859;BME280;36826;47.514;19.056;2022-12-18T04:50:36;101835.72;;;-4.06;100.00
50859;BME280;36826;47.514;19.056;2022-12-18T04:53:02;101838.31;;;-4.06;100.00
50859;BME280;36826;47.514;19.056;2022-12-18T04:55:27;101840.09;;;-4.03;100.00
50859;BME280;36826;47.514;19.056;2022-12-18T04:57:53;101847.06;;;-4.08;100.00
50859;BME280;36826;47.514;19.056;2022-12-18T05:00:19;101840.94;;;-4.10;100.00
50859;BME280;36826;47.514;19.056;2022-12-18T05:02:45;101840.97;;;-4.09;100.00
50859;BME280;36826;47.514;19.056;2022-12-18T05:05:10;101843.59;;;-4.09;100.00
50859;BME280;36826;47.514;19.056;2022-12-18T05:07:36;101840.97;;;-4.15;100.00
50859;BME280;36826;47.514;19.056;2022-12-18T05:10:01;101847.06;;;-4.13;100.00
50859;BME280;36826;47.514;19.056;2022-12-18T05:12:27;101853.19;;;-4.08;100.00
50859;BME280;36826;47.514;19.056;2022-12-18T05:14:52;101858.41;;;-4.11;100.00
50859;BME280;36826;47.514;19.056;2022-12-18T05:17:18;101851.41;;;-4.06;100.00
50859;BME280;36826;47.514;19.056;2022-12-18T05:19:43;101848.81;;;-4.09;100.00
50859;BME280;36826;47.514;19.056;2022-12-18T05:22:08;101855.78;;;-4.06;100.00
50859;BME280;36826;47.514;19.056;2022-12-18T05:24:34;101859.28;;;-3.95;100.00
50859;BME280;36826;47.514;19.056;2022-12-18T05:27:00;101857.53;;;-4.02;100.00
50859;BME280;36826;47.514;19.056;2022-12-18T05:29:25;101867.13;;;-3.99;100.00
50859;BME280;36826;47.514;19.056;2022-12-18T05:31:51;101872.34;;;-3.93;100.00
50859;BME280;36826;47.514;19.056;2022-12-18T05:34:16;101881.09;;;-3.97;100.00
50859;BME280;36826;47.514;19.056;2022-12-18T05:36:42;101883.72;;;-3.97;100.00
50859;BME280;36826;47.514;19.056;2022-12-18T05:39:07;101876.72;;;-4.02;100.00
50859;BME280;36826;47.514;19.056;2022-12-18T05:41:33;101889.81;;;-3.95;100.00
50859;BME280;36826;47.514;19.056;2022-12-18T05:43:58;101889.81;;;-3.97;100.00
50859;BME280;36826;47.514;19.056;2022-12-18T05:46:24;101895.06;;;-4.06;100.00
50859;BME280;36826;47.514;19.056;2022-12-18T05:48:50;101892.44;;;-4.11;100.00
50859;BME280;36826;47.514;19.056;2022-12-18T05:51:17;101896.81;;;-4.10;100.00
50859;BME280;36826;47.514;19.056;2022-12-18T05:53:43;101906.41;;;-4.07;100.00
50859;BME280;36826;47.514;19.056;2022-12-18T05:56:12;101910.75;;;-4.14;100.00
50859;BME280;36826;47.514;19.056;2022-12-18T05:58:38;101906.41;;;-4.09;100.00
50859;BME280;36826;47.514;19.056;2022-12-18T06:01:10;101917.75;;;-4.10;100.00
50859;BME280;36826;47.514;19.056;2022-12-18T06:03:36;101924.72;;;-4.06;100.00
50859;BME280;36826;47.514;19.056;2022-12-18T06:06:01;101920.34;;;-4.13;100.00
50859;BME280;36826;47.514;19.056;2022-12-18T06:08:27;101929.09;;;-4.06;100.00
50859;BME280;36826;47.514;19.056;2022-12-18T06:10:53;101924.72;;;-4.12;100.00
50859;BME280;36826;47.514;19.056;2022-12-18T06:13:19;101922.09;;;-4.07;100.00
50859;BME280;36826;47.514;19.056;2022-12-18T06:15:44;101924.72;;;-4.12;100.00
50859;BME280;36826;47.514;19.056;2022-12-18T06:18:10;101922.09;;;-4.12;100.00
50859;BME280;36826;47.514;19.056;2022-12-18T06:20:35;101931.72;;;-4.08;100.00
50859;BME280;36826;47.514;19.056;2022-12-18T06:23:02;101935.19;;;-4.15;100.00
50859;BME280;36826;47.514;19.056;2022-12-18T06:25:27;101941.28;;;-4.21;100.00
50859;BME280;36826;47.514;19.056;2022-12-18T06:27:53;101942.19;;;-4.20;100.00
50859;BME280;36826;47.514;19.056;2022-12-18T06:30:19;101948.28;;;-4.21;100.00
50859;BME280;36826;47.514;19.056;2022-12-18T06:32:44;101954.38;;;-4.25;100.00
50859;BME280;36826;47.514;19.056;2022-12-18T06:35:10;101951.75;;;-4.22;100.00
50859;BME280;36826;47.514;19.056;2022-12-18T06:37:35;101956.09;;;-4.18;100.00
50859;BME280;36826;47.514;19.056;2022-12-18T06:40:01;101965.72;;;-4.16;100.00
50859;BME280;36826;47.514;19.056;2022-12-18T06:42:26;101971.84;;;-4.09;100.00
50859;BME280;36826;47.514;19.056;2022-12-18T06:44:53;101973.59;;;-4.02;100.00
50859;BME280;36826;47.514;19.056;2022-12-18T06:47:18;101972.75;;;-3.94;100.00
50859;BME280;36826;47.514;19.056;2022-12-18T06:49:44;101985.81;;;-3.83;100.00
50859;BME280;36826;47.514;19.056;2022-12-18T06:52:09;101969.25;;;-3.72;100.00
50859;BME280;36826;47.514;19.056;2022-12-18T06:54:35;101984.06;;;-3.52;100.00
50859;BME280;36826;47.514;19.056;2022-12-18T06:57:00;101990.97;;;-3.08;100.00
50859;BME280;36826;47.514;19.056;2022-12-18T06:59:25;102004.09;;;-1.50;100.00
50859;BME280;36826;47.514;19.056;2022-12-18T07:01:51;102011.41;;;-0.23;100.00
50859;BME280;36826;47.514;19.056;2022-12-18T07:04:16;102011.91;;;-1.44;100.00
50859;BME280;36826;47.514;19.056;2022-12-18T07:06:42;102021.13;;;-2.01;100.00
50859;BME280;36826;47.514;19.056;2022-12-18T07:09:07;102030.91;;;-1.13;100.00
50859;BME280;36826;47.514;19.056;2022-12-18T07:11:33;102021.34;;;1.62;100.00
50859;BME280;36826;47.514;19.056;2022-12-18T07:13:58;102038.41;;;1.88;86.34
50859;BME280;36826;47.514;19.056;2022-12-18T07:16:24;102042.78;;;4.47;77.39
50859;BME280;36826;47.514;19.056;2022-12-18T07:18:49;102042.78;;;4.74;69.62
50859;BME280;36826;47.514;19.056;2022-12-18T07:21:17;102041.63;;;4.56;67.21
50859;BME280;36826;47.514;19.056;2022-12-18T07:23:43;102049.66;;;3.37;69.81
50859;BME280;36826;47.514;19.056;2022-12-18T07:26:12;102052.63;;;7.03;61.66
50859;BME280;36826;47.514;19.056;2022-12-18T07:28:39;102058.41;;;6.93;56.36
50859;BME280;36826;47.514;19.056;2022-12-18T07:31:11;102057.56;;;8.47;54.68
50859;BME280;36826;47.514;19.056;2022-12-18T07:33:37;102059.38;;;9.00;54.09
50859;BME280;36826;47.514;19.056;2022-12-18T07:36:05;102057.06;;;10.25;49.72
50859;BME280;36826;47.514;19.056;2022-12-18T07:38:31;102067.25;;;11.12;45.80
50859;BME280;36826;47.514;19.056;2022-12-18T07:41:17;102062.66;;;11.86;43.68
50859;BME280;36826;47.514;19.056;2022-12-18T07:43:44;102071.84;;;12.66;42.35
50859;BME280;36826;47.514;19.056;2022-12-18T07:46:10;102070.97;;;13.31;39.83
50859;BME280;36826;47.514;19.056;2022-12-18T07:48:38;102076.91;;;13.62;38.89
50859;BME280;36826;47.514;19.056;2022-12-18T07:51:05;102078.28;;;13.03;39.55
50859;BME280;36826;47.514;19.056;2022-12-18T07:53:31;102089.53;;;12.28;39.31
50859;BME280;36826;47.514;19.056;2022-12-18T07:55:58;102097.16;;;9.10;45.32
50859;BME280;36826;47.514;19.056;2022-12-18T07:58:24;102104.56;;;9.05;45.13
50859;BME280;36826;47.514;19.056;2022-12-18T08:00:49;102101.59;;;10.44;43.81
50859;BME280;36826;47.514;19.056;2022-12-18T08:03:15;102102.13;;;10.51;43.07
50859;BME280;36826;47.514;19.056;2022-12-18T08:05:40;102099.03;;;9.26;44.80
50859;BME280;36826;47.514;19.056;2022-12-18T08:08:06;102100.16;;;11.44;41.86
50859;BME280;36826;47.514;19.056;2022-12-18T08:10:31;102094.34;;;13.31;39.51
50859;BME280;36826;47.514;19.056;2022-12-18T08:12:57;102103.94;;;13.35;37.79
50859;BME280;36826;47.514;19.056;2022-12-18T08:15:22;102115.78;;;11.38;41.39
50859;BME280;36826;47.514;19.056;2022-12-18T08:17:47;102113.31;;;11.63;40.65
50859;BME280;36826;47.514;19.056;2022-12-18T08:20:13;102110.56;;;12.21;40.15
50859;BME280;36826;47.514;19.056;2022-12-18T08:22:41;102116.13;;;13.67;38.93
50859;BME280;36826;47.514;19.056;2022-12-18T08:25:06;102116.50;;;13.99;38.11
50859;BME280;36826;47.514;19.056;2022-12-18T08:27:32;102124.66;;;12.67;38.62
50859;BME280;36826;47.514;19.056;2022-12-18T08:29:57;102118.00;;;14.40;38.03
50859;BME280;36826;47.514;19.056;2022-12-18T08:32:24;102117.91;;;15.38;35.76
50859;BME280;36826;47.514;19.056;2022-12-18T08:34:50;102123.94;;;12.23;37.72
50859;BME280;36826;47.514;19.056;2022-12-18T08:37:15;102123.88;;;14.21;37.03
50859;BME280;36826;47.514;19.056;2022-12-18T08:39:42;102124.13;;;12.05;38.84
50859;BME280;36826;47.514;19.056;2022-12-18T08:42:07;102137.25;;;10.12;41.58
50859;BME280;36826;47.514;19.056;2022-12-18T08:44:51;102123.78;;;12.39;41.08
50859;BME280;36826;47.514;19.056;2022-12-18T08:47:17;102120.69;;;12.72;38.22
50859;BME280;36826;47.514;19.056;2022-12-18T08:49:42;102125.91;;;12.34;38.83
50859;BME280;36826;47.514;19.056;2022-12-18T08:52:07;102128.06;;;12.56;38.27
50859;BME280;36826;47.514;19.056;2022-12-18T08:54:33;102128.81;;;11.29;39.95
50859;BME280;36826;47.514;19.056;2022-12-18T08:56:59;102127.94;;;10.98;40.11
50859;BME280;36826;47.514;19.056;2022-12-18T08:59:24;102144.34;;;10.78;40.95
50859;BME280;36826;47.514;19.056;2022-12-18T09:01:53;102148.97;;;9.94;42.26
50859;BME280;36826;47.514;19.056;2022-12-18T09:04:18;102154.00;;;10.00;42.24
50859;BME280;36826;47.514;19.056;2022-12-18T09:06:44;102156.28;;;8.31;44.26
50859;BME280;36826;47.514;19.056;2022-12-18T09:09:09;102163.97;;;8.37;47.32
50859;BME280;36826;47.514;19.056;2022-12-18T09:11:35;102163.78;;;9.83;43.96
50859;BME280;36826;47.514;19.056;2022-12-18T09:14:01;102161.81;;;11.15;41.95
50859;BME280;36826;47.514;19.056;2022-12-18T09:16:27;102156.72;;;10.64;43.14
50859;BME280;36826;47.514;19.056;2022-12-18T09:18:55;102155.06;;;10.78;42.42
50859;BME280;36826;47.514;19.056;2022-12-18T09:21:26;102158.94;;;10.72;42.32
50859;BME280;36826;47.514;19.056;2022-12-18T09:23:53;102148.16;;;10.41;42.58
50859;BME280;36826;47.514;19.056;2022-12-18T09:26:20;102144.34;;;9.46;45.71
50859;BME280;36826;47.514;19.056;2022-12-18T09:28:46;102148.75;;;8.95;45.55
50859;BME280;36826;47.514;19.056;2022-12-18T09:31:13;102154.66;;;8.26;45.36
50859;BME280;36826;47.514;19.056;2022-12-18T09:33:39;102155.50;;;9.55;45.29
50859;BME280;36826;47.514;19.056;2022-12-18T09:36:06;102147.53;;;10.36;44.41
50859;BME280;36826;47.514;19.056;2022-12-18T09:38:33;102149.56;;;10.49;42.76
50859;BME280;36826;47.514;19.056;2022-12-18T09:43:45;102157.47;;;8.62;45.36
50859;BME280;36826;47.514;19.056;2022-12-18T09:46:18;102147.91;;;9.63;44.86
50859;BME280;36826;47.514;19.056;2022-12-18T09:48:49;102154.00;;;9.31;46.19
50859;BME280;36826;47.514;19.056;2022-12-18T09:51:19;102161.00;;;8.81;47.32
50859;BME280;36826;47.514;19.056;2022-12-18T09:54:11;102159.22;;;8.24;46.89
50859;BME280;36826;47.514;19.056;2022-12-18T09:56:41;102157.34;;;8.45;46.39
50859;BME280;36826;47.514;19.056;2022-12-18T09:59:18;102164.50;;;6.60;48.58
50859;BME280;36826;47.514;19.056;2022-12-18T10:01:47;102158.84;;;6.46;52.57
50859;BME280;36826;47.514;19.056;2022-12-18T10:04:13;102156.13;;;6.48;53.06
50859;BME280;36826;47.514;19.056;2022-12-18T10:06:45;102155.34;;;5.74;54.43
50859;BME280;36826;47.514;19.056;2022-12-18T10:12:30;102150.97;;;5.72;58.22
50859;BME280;36826;47.514;19.056;2022-12-18T10:20:17;102155.00;;;4.52;60.50
50859;BME280;36826;47.514;19.056;2022-12-18T10:26:06;102148.16;;;4.15;65.07
50859;BME280;36826;47.514;19.056;2022-12-18T10:28:35;102148.97;;;3.87;67.90
50859;BME280;36826;47.514;19.056;2022-12-18T10:31:02;102147.38;;;3.15;65.55
50859;BME280;36826;47.514;19.056;2022-12-18T10:33:31;102150.88;;;2.81;68.47
50859;BME280;36826;47.514;19.056;2022-12-18T10:35:57;102144.84;;;1.96;68.97
50859;BME280;36826;47.514;19.056;2022-12-18T10:38:26;102153.66;;;1.51;73.42
50859;BME280;36826;47.514;19.056;2022-12-18T10:41:05;102155.63;;;1.87;79.27
50859;BME280;36826;47.514;19.056;2022-12-18T10:43:33;102148.72;;;2.20;83.02
50859;BME280;36826;47.514;19.056;2022-12-18T10:49:00;102149.56;;;2.24;82.58
50859;BME280;36826;47.514;19.056;2022-12-18T10:51:27;102150.88;;;2.03;78.76
50859;BME280;36826;47.514;19.056;2022-12-18T10:53:59;102153.13;;;1.79;78.86
50859;BME280;36826;47.514;19.056;2022-12-18T10:56:28;102146.34;;;1.64;80.68
50859;BME280;36826;47.514;19.056;2022-12-18T10:59:00;102149.53;;;1.81;82.74
50859;BME280;36826;47.514;19.056;2022-12-18T11:01:26;102152.63;;;2.02;81.20
50859;BME280;36826;47.514;19.056;2022-12-18T11:04:00;102149.44;;;1.86;80.90
50859;BME280;36826;47.514;19.056;2022-12-18T11:06:26;102139.81;;;1.83;81.22
50859;BME280;36826;47.514;19.056;2022-12-18T11:11:24;102133.06;;;1.68;82.05
50859;BME280;36826;47.514;19.056;2022-12-18T11:16:28;102132.75;;;1.84;81.84
50859;BME280;36826;47.514;19.056;2022-12-18T11:19:06;102132.09;;;1.73;81.15
50859;BME280;36826;47.514;19.056;2022-12-18T11:21:39;102130.59;;;1.61;81.57
50859;BME280;36826;47.514;19.056;2022-12-18T11:24:19;102128.25;;;1.44;80.03
50859;BME280;36826;47.514;19.056;2022-12-18T11:26:45;102134.03;;;1.63;83.00
50859;BME280;36826;47.514;19.056;2022-12-18T11:29:17;102131.50;;;1.58;81.61
50859;BME280;36826;47.514;19.056;2022-12-18T11:31:43;102138.53;;;1.61;82.74
50859;BME280;36826;47.514;19.056;2022-12-18T11:34:36;102133.94;;;1.69;82.11
50859;BME280;36826;47.514;19.056;2022-12-18T11:37:02;102128.81;;;1.61;81.01
50859;BME280;36826;47.514;19.056;2022-12-18T11:39:37;102124.88;;;1.82;83.28
50859;BME280;36826;47.514;19.056;2022-12-18T11:47:52;102122.56;;;2.08;80.92
50859;BME280;36826;47.514;19.056;2022-12-18T11:50:24;102126.41;;;1.93;81.10
50859;BME280;36826;47.514;19.056;2022-12-18T11:52:50;102119.97;;;2.06;81.10
50859;BME280;36826;47.514;19.056;2022-12-18T12:09:24;102112.41;;;1.88;79.57
50859;BME280;36826;47.514;19.056;2022-12-18T12:12:05;102099.66;;;1.66;79.48
50859;BME280;36826;47.514;19.056;2022-12-18T12:14:58;102107.25;;;1.81;80.57
50859;BME280;36826;47.514;19.056;2022-12-18T12:17:36;102109.09;;;1.78;79.91
50859;BME280;36826;47.514;19.056;2022-12-18T12:20:32;102101.69;;;1.95;81.38
50859;BME280;36826;47.514;19.056;2022-12-18T12:23:15;102105.97;;;2.01;81.03
50859;BME280;36826;47.514;19.056;2022-12-18T12:25:49;102105.78;;;2.10;81.08
50859;BME280;36826;47.514;19.056;2022-12-18T12:31:20;102108.41;;;2.10;79.77
50859;BME280;36826;47.514;19.056;2022-12-18T12:39:14;102106.75;;;2.06;81.01
50859;BME280;36826;47.514;19.056;2022-12-18T12:41:42;102103.03;;;2.15;81.04
50859;BME280;36826;47.514;19.056;2022-12-18T12:44:34;102108.25;;;2.18;81.78
50859;BME280;36826;47.514;19.056;2022-12-18T12:47:14;102110.00;;;2.18;80.80
50859;BME280;36826;47.514;19.056;2022-12-18T12:49:42;102119.69;;;2.19;82.48
50859;BME280;36826;47.514;19.056;2022-12-18T12:52:16;102125.03;;;2.15;80.71
50859;BME280;36826;47.514;19.056;2022-12-18T12:54:43;102136.63;;;2.10;79.33
50859;BME280;36826;47.514;19.056;2022-12-18T12:57:27;102138.56;;;2.02;77.77
50859;BME280;36826;47.514;19.056;2022-12-18T13:02:39;102138.78;;;1.92;78.57
50859;BME280;36826;47.514;19.056;2022-12-18T13:05:22;102141.56;;;1.84;79.51
50859;BME280;36826;47.514;19.056;2022-12-18T13:07:57;102140.50;;;1.93;80.39
50859;BME280;36826;47.514;19.056;2022-12-18T13:10:31;102146.53;;;2.00;79.54
50859;BME280;36826;47.514;19.056;2022-12-18T13:15:43;102148.25;;;2.03;79.35
50859;BME280;36826;47.514;19.056;2022-12-18T13:20:40;102144.66;;;2.05;78.71
50859;BME280;36826;47.514;19.056;2022-12-18T13:23:39;102146.53;;;2.00;77.24
50859;BME280;36826;47.514;19.056;2022-12-18T13:31:00;102160.97;;;1.83;76.58
50859;BME280;36826;47.514;19.056;2022-12-18T13:36:14;102162.81;;;1.78;75.33
50859;BME280;36826;47.514;19.056;2022-12-18T13:38:39;102169.91;;;1.76;75.66
50859;BME280;36826;47.514;19.056;2022-12-18T13:43:50;102166.50;;;1.71;74.82
50859;BME280;36826;47.514;19.056;2022-12-18T13:49:15;102167.47;;;1.65;75.01
50859;BME280;36826;47.514;19.056;2022-12-18T13:51:48;102174.63;;;1.60;75.97
50859;BME280;36826;47.514;19.056;2022-12-18T13:54:18;102176.53;;;1.52;76.65
50859;BME280;36826;47.514;19.056;2022-12-18T13:56:46;102177.41;;;1.52;76.39
50859;BME280;36826;47.514;19.056;2022-12-18T14:01:54;102186.41;;;1.42;76.58
50859;BME280;36826;47.514;19.056;2022-12-18T14:04:34;102176.06;;;1.30;77.07
50859;BME280;36826;47.514;19.056;2022-12-18T14:07:10;102176.13;;;1.23;78.61
50859;BME280;36826;47.514;19.056;2022-12-18T14:09:52;102185.94;;;1.18;79.13
50859;BME280;36826;47.514;19.056;2022-12-18T14:12:24;102185.16;;;1.10;80.00
50859;BME280;36826;47.514;19.056;2022-12-18T14:20:42;102185.44;;;0.95;81.65
50859;BME280;36826;47.514;19.056;2022-12-18T14:23:38;102181.94;;;0.93;82.21
50859;BME280;36826;47.514;19.056;2022-12-18T14:26:24;102182.03;;;0.86;83.55
50859;BME280;36826;47.514;19.056;2022-12-18T14:28:52;102184.66;;;0.88;84.80
50859;BME280;36826;47.514;19.056;2022-12-18T14:31:20;102195.28;;;0.83;86.40
50859;BME280;36826;47.514;19.056;2022-12-18T14:33:46;102193.59;;;0.77;88.28